createdAt,value
2019-04-30T00:02:35.918Z,93.78
2019-04-30T00:05:00.839Z,94.03
2019-04-30T00:07:28.176Z,93.91
2019-04-30T00:09:57.607Z,93.70
2019-04-30T00:12:25.822Z,93.76
2019-04-30T00:14:55.024Z,93.75
2019-04-30T00:17:22.615Z,93.64
2019-04-30T00:19:50.512Z,93.95
2019-04-30T00:22:31.093Z,93.92
2019-04-30T00:24:50.001Z,93.47
2019-04-30T00:27:21.114Z,93.82
2019-04-30T00:29:47.762Z,93.85
2019-04-30T00:32:15.969Z,93.95
2019-04-30T00:34:43.552Z,94.11
2019-04-30T00:37:13.959Z,94.05
2019-04-30T00:39:44.397Z,94.08
2019-04-30T00:42:12.259Z,93.96
2019-04-30T00:44:39.812Z,93.91
2019-04-30T00:47:08.267Z,93.96
2019-04-30T00:49:35.946Z,94.06
2019-04-30T00:52:05.143Z,93.94
2019-04-30T00:54:32.878Z,94.10
2019-04-30T00:57:04.455Z,94.17
2019-04-30T00:59:29.526Z,93.99
2019-04-30T01:02:20.126Z,93.91
2019-04-30T01:04:49.787Z,94.01
2019-04-30T01:07:17.258Z,93.82
2019-04-30T01:09:49.567Z,93.98
2019-04-30T01:12:17.452Z,94.09
2019-04-30T01:14:43.536Z,94.32
2019-04-30T01:17:12.366Z,94.08
2019-04-30T01:19:40.152Z,93.85
2019-04-30T01:22:09.102Z,93.84
2019-04-30T01:24:36.510Z,94.04
2019-04-30T01:27:06.942Z,93.97
2019-04-30T01:29:40.944Z,94.15
2019-04-30T01:32:03.436Z,93.97
2019-04-30T01:34:31.195Z,94.15
2019-04-30T01:36:58.987Z,94.07
2019-04-30T01:39:28.472Z,94.14
2019-04-30T01:41:55.780Z,94.03
2019-04-30T01:44:24.872Z,93.74
2019-04-30T01:46:52.134Z,93.93
2019-04-30T01:49:20.277Z,93.78
2019-04-30T01:51:52.874Z,93.80
2019-04-30T01:54:24.039Z,93.95
2019-04-30T01:56:49.908Z,93.68
2019-04-30T01:59:19.440Z,93.73
2019-04-30T02:01:49.183Z,93.87
2019-04-30T02:04:16.610Z,93.68
2019-04-30T02:06:44.056Z,93.70
2019-04-30T02:09:11.530Z,93.58
2019-04-30T02:11:38.944Z,93.45
2019-04-30T02:14:06.386Z,93.54
2019-04-30T02:16:33.876Z,93.34
2019-04-30T02:19:01.247Z,93.82
2019-04-30T02:21:30.339Z,93.62
2019-04-30T02:23:58.838Z,93.67
2019-04-30T02:26:28.640Z,93.67
2019-04-30T02:28:56.146Z,93.73
2019-04-30T02:31:23.382Z,93.33
2019-04-30T02:34:04.829Z,93.35
2019-04-30T02:36:32.379Z,93.40
2019-04-30T02:39:02.699Z,93.68
2019-04-30T02:41:30.767Z,93.54
2019-04-30T02:43:59.836Z,93.91
2019-04-30T02:46:32.379Z,93.75
2019-04-30T02:49:00.468Z,93.74
2019-04-30T02:51:31.314Z,93.72
2019-04-30T02:54:10.202Z,93.50
2019-04-30T02:56:39.985Z,93.67
2019-04-30T02:59:09.893Z,93.51
2019-04-30T03:01:36.977Z,93.62
2019-04-30T03:04:04.454Z,93.49
2019-04-30T03:06:31.971Z,93.27
2019-04-30T03:09:01.057Z,93.17
2019-04-30T03:11:30.114Z,93.27
2019-04-30T03:13:59.252Z,93.05
2019-04-30T03:16:40.091Z,93.11
2019-04-30T03:19:09.949Z,92.87
2019-04-30T03:21:45.323Z,92.80
2019-04-30T03:24:14.058Z,92.57
2019-04-30T03:26:41.534Z,92.78
2019-04-30T03:29:11.363Z,92.96
2019-04-30T03:31:44.407Z,92.39
2019-04-30T03:34:16.689Z,91.86
2019-04-30T03:36:36.834Z,92.46
2019-04-30T03:39:05.484Z,92.63
2019-04-30T03:41:33.501Z,92.42
2019-04-30T03:44:16.420Z,91.97
2019-04-30T03:46:31.558Z,92.24
2019-04-30T03:49:00.209Z,92.32
2019-04-30T03:51:30.268Z,91.96
2019-04-30T03:53:59.565Z,92.35
2019-04-30T03:56:29.769Z,92.42
2019-04-30T03:58:56.376Z,92.36
2019-04-30T04:01:39.931Z,92.46
2019-04-30T04:04:10.021Z,92.52
2019-04-30T04:06:54.604Z,92.24
2019-04-30T04:09:26.787Z,92.64
2019-04-30T04:11:54.117Z,92.14
2019-04-30T04:14:21.642Z,91.68
2019-04-30T04:16:50.791Z,91.00
2019-04-30T04:19:19.645Z,91.44
2019-04-30T04:21:47.130Z,92.16
2019-04-30T04:24:14.749Z,92.10
2019-04-30T04:26:43.851Z,92.00
2019-04-30T04:29:12.499Z,91.60
2019-04-30T04:31:40.268Z,92.07
2019-04-30T04:34:09.290Z,92.29
2019-04-30T04:36:39.920Z,91.95
2019-04-30T04:39:09.817Z,91.67
2019-04-30T04:41:39.736Z,91.20
2019-04-30T04:44:06.534Z,91.05
2019-04-30T04:46:34.119Z,90.58
2019-04-30T04:49:01.534Z,90.44
2019-04-30T04:51:38.089Z,91.16
2019-04-30T04:54:00.117Z,91.44
2019-04-30T04:56:30.249Z,91.01
2019-04-30T04:58:57.079Z,91.01
2019-04-30T05:01:24.643Z,91.33
2019-04-30T05:03:53.112Z,91.69
2019-04-30T05:06:21.764Z,91.69
2019-04-30T05:08:50.154Z,91.73
2019-04-30T05:11:19.230Z,91.00
2019-04-30T05:13:46.655Z,90.93
2019-04-30T05:16:14.052Z,91.09
2019-04-30T05:18:41.426Z,91.03
2019-04-30T05:21:09.043Z,91.35
2019-04-30T05:23:36.533Z,91.56
2019-04-30T05:26:03.904Z,91.82
2019-04-30T05:28:31.374Z,91.55
2019-04-30T05:30:59.404Z,92.21
2019-04-30T05:33:28.540Z,91.89
2019-04-30T05:35:56.066Z,92.13
2019-04-30T05:38:23.406Z,91.67
2019-04-30T05:40:51.070Z,91.79
2019-04-30T05:43:19.195Z,91.02
2019-04-30T05:45:48.984Z,90.35
2019-04-30T05:48:18.447Z,89.45
2019-04-30T05:50:45.934Z,89.24
2019-04-30T05:53:13.438Z,88.73
2019-04-30T05:55:41.460Z,89.38
2019-04-30T05:58:09.389Z,89.51
2019-04-30T06:00:39.773Z,89.89
2019-04-30T06:03:06.887Z,89.18
2019-04-30T06:05:34.596Z,89.40
2019-04-30T06:08:02.168Z,90.40
2019-04-30T06:10:34.806Z,90.65
2019-04-30T06:13:10.378Z,90.88
2019-04-30T06:15:40.178Z,91.19
2019-04-30T06:18:13.459Z,91.35
2019-04-30T06:20:38.641Z,91.42
2019-04-30T06:23:06.880Z,91.18
2019-04-30T06:25:52.893Z,91.17
2019-04-30T06:28:04.399Z,91.17
2019-04-30T06:30:32.696Z,91.17
2019-04-30T06:33:00.592Z,91.42
2019-04-30T06:35:29.368Z,91.63
2019-04-30T06:37:58.985Z,91.30
2019-04-30T06:40:29.139Z,90.79
2019-04-30T06:43:00.457Z,91.26
2019-04-30T06:45:28.989Z,91.14
2019-04-30T06:47:59.126Z,91.01
2019-04-30T06:50:26.276Z,90.69
2019-04-30T06:52:56.835Z,90.26
2019-04-30T06:55:23.140Z,90.89
2019-04-30T06:57:50.533Z,90.77
2019-04-30T07:00:20.679Z,90.63
2019-04-30T07:02:49.428Z,90.57
2019-04-30T07:05:18.620Z,91.73
2019-04-30T07:08:09.244Z,91.78
2019-04-30T07:10:35.247Z,91.21
2019-04-30T07:13:04.492Z,90.77
2019-04-30T07:15:32.120Z,89.84
2019-04-30T07:18:00.530Z,88.87
2019-04-30T07:20:29.128Z,89.09
2019-04-30T07:23:02.221Z,89.34
2019-04-30T07:25:26.087Z,89.24
2019-04-30T07:27:53.436Z,89.78
2019-04-30T07:30:21.028Z,90.31
2019-04-30T07:32:48.793Z,90.23
2019-04-30T07:35:16.442Z,90.15
2019-04-30T07:37:43.716Z,90.01
2019-04-30T07:40:11.459Z,90.16
2019-04-30T07:42:44.613Z,90.24
2019-04-30T07:45:09.633Z,90.09
2019-04-30T07:47:39.230Z,90.19
2019-04-30T07:50:10.786Z,90.73
2019-04-30T07:52:55.395Z,90.92
2019-04-30T07:55:09.645Z,90.91
2019-04-30T07:57:36.706Z,91.42
2019-04-30T08:00:05.427Z,91.29
2019-04-30T08:02:39.601Z,91.42
2019-04-30T08:05:10.544Z,91.33
2019-04-30T08:07:39.156Z,91.71
2019-04-30T08:10:08.797Z,91.04
2019-04-30T08:12:40.664Z,90.86
2019-04-30T08:15:09.503Z,90.67
2019-04-30T08:17:36.677Z,90.46
2019-04-30T08:20:05.577Z,90.20
2019-04-30T08:22:33.216Z,90.67
2019-04-30T08:25:00.793Z,90.04
2019-04-30T08:27:29.623Z,90.51
2019-04-30T08:29:59.102Z,90.73
2019-04-30T08:32:28.784Z,90.37
2019-04-30T08:34:56.408Z,90.14
2019-04-30T08:37:23.849Z,90.30
2019-04-30T08:39:51.418Z,90.12
2019-04-30T08:42:28.993Z,90.13
2019-04-30T08:44:48.555Z,89.97
2019-04-30T08:47:16.295Z,90.32
2019-04-30T08:49:44.297Z,89.86
2019-04-30T08:52:12.118Z,89.34
2019-04-30T08:54:39.744Z,88.89
2019-04-30T08:57:08.616Z,88.36
2019-04-30T08:59:35.908Z,88.23
2019-04-30T09:02:15.227Z,88.66
2019-04-30T09:04:34.961Z,89.17
2019-04-30T09:07:02.546Z,88.66
2019-04-30T09:09:30.376Z,88.79
2019-04-30T09:11:59.196Z,88.63
2019-04-30T09:14:27.102Z,88.37
2019-04-30T09:31:43.082Z,58.06
2019-04-30T09:34:17.567Z,79.29
2019-04-30T09:36:45.774Z,84.20
2019-04-30T09:39:16.212Z,86.04
2019-04-30T09:41:46.636Z,86.56
2019-04-30T09:44:17.232Z,86.79
2019-04-30T09:46:48.944Z,86.65
2019-04-30T09:49:21.047Z,87.12
2019-04-30T09:51:52.071Z,87.33
2019-04-30T09:54:22.974Z,87.64
2019-04-30T09:56:53.699Z,88.07
2019-04-30T09:59:24.246Z,87.71
2019-04-30T10:04:29.939Z,87.05
2019-04-30T10:07:00.780Z,86.34
2019-04-30T10:11:55.882Z,84.58
2019-04-30T10:14:26.612Z,85.52
2019-04-30T10:16:59.607Z,86.00
2019-04-30T10:19:30.049Z,86.84
2019-04-30T10:22:00.605Z,87.01
2019-04-30T10:24:31.261Z,86.63
2019-04-30T10:27:03.260Z,84.24
2019-04-30T10:29:33.810Z,83.05
2019-04-30T10:32:04.338Z,82.95
2019-04-30T10:34:34.864Z,83.55
2019-04-30T10:37:05.574Z,84.84
2019-04-30T10:39:38.769Z,84.83
2019-04-30T10:42:08.799Z,84.34
2019-04-30T10:44:39.437Z,84.27
2019-04-30T10:47:10.071Z,84.86
2019-04-30T10:49:40.988Z,84.20
2019-04-30T10:52:11.618Z,84.22
2019-04-30T10:54:42.142Z,84.50
2019-04-30T10:57:12.695Z,84.21
2019-04-30T10:59:43.323Z,85.27
2019-04-30T11:02:14.031Z,86.50
2019-04-30T11:04:44.534Z,86.35
2019-04-30T11:07:14.968Z,86.04
2019-04-30T11:09:45.552Z,86.09
2019-04-30T11:12:15.970Z,85.05
2019-04-30T11:14:46.484Z,84.52
2019-04-30T11:17:17.057Z,82.55
2019-04-30T11:19:49.278Z,82.89
2019-04-30T11:22:20.205Z,83.53
2019-04-30T11:24:59.144Z,83.45
2019-04-30T11:27:23.495Z,83.09
2019-04-30T11:30:00.623Z,81.45
2019-04-30T11:32:26.570Z,80.72
2019-04-30T11:34:57.152Z,81.37
2019-04-30T11:37:27.633Z,82.72
2019-04-30T11:39:58.053Z,83.78
2019-04-30T11:42:28.508Z,84.27
2019-04-30T11:44:59.025Z,85.60
2019-04-30T11:47:31.613Z,85.29
2019-04-30T11:50:02.355Z,85.63
2019-04-30T11:52:32.946Z,85.02
2019-04-30T11:55:03.525Z,85.01
2019-04-30T11:57:33.954Z,85.57
2019-04-30T12:00:08.520Z,85.88
2019-04-30T12:02:41.856Z,85.57
2019-04-30T12:05:15.244Z,85.75
2019-04-30T12:07:53.556Z,84.46
2019-04-30T12:10:31.844Z,84.04
2019-04-30T12:13:02.264Z,85.21
2019-04-30T12:15:32.970Z,85.05
2019-04-30T12:18:03.878Z,85.10
2019-04-30T12:20:34.420Z,85.47
2019-04-30T12:23:04.865Z,84.38
2019-04-30T12:25:35.453Z,85.16
2019-04-30T12:28:06.029Z,85.09
2019-04-30T12:30:39.042Z,85.12
2019-04-30T12:33:09.110Z,84.33
2019-04-30T12:35:39.642Z,84.77
2019-04-30T12:38:10.165Z,85.51
2019-04-30T12:40:40.725Z,85.97
2019-04-30T12:43:11.158Z,84.97
2019-04-30T12:45:41.745Z,84.53
2019-04-30T12:48:20.019Z,84.63
2019-04-30T12:50:50.443Z,85.51
2019-04-30T12:53:38.165Z,85.74
2019-04-30T12:56:10.171Z,85.83
2019-04-30T12:58:40.538Z,84.59
2019-04-30T13:01:12.199Z,52.58
2019-04-30T13:05:27.246Z,21.87
2019-04-30T13:08:00.601Z,20.66
2019-04-30T13:10:33.556Z,20.26
2019-04-30T13:13:06.693Z,19.96
2019-04-30T13:15:39.048Z,20.09
2019-04-30T13:18:10.961Z,20.10
2019-04-30T13:20:43.294Z,20.31
2019-04-30T13:23:15.193Z,20.71
2019-04-30T13:25:51.136Z,20.89
2019-04-30T13:28:22.418Z,20.90
2019-04-30T13:30:55.055Z,20.99
2019-04-30T13:33:39.296Z,20.56
2019-04-30T13:36:11.134Z,20.29
2019-04-30T13:38:52.287Z,19.96
2019-04-30T13:41:34.879Z,20.02
2019-04-30T13:44:09.685Z,19.84
2019-04-30T13:46:41.803Z,20.18
2019-04-30T13:49:13.859Z,20.02
2019-04-30T13:51:45.668Z,25.01
2019-04-30T13:54:18.019Z,31.96
2019-04-30T13:56:50.040Z,38.66
2019-04-30T13:59:22.283Z,45.23
2019-04-30T14:01:54.489Z,48.93
2019-04-30T14:04:28.156Z,52.46
2019-04-30T14:06:59.723Z,56.11
2019-04-30T14:09:33.320Z,58.95
2019-04-30T14:12:05.396Z,60.85
2019-04-30T14:14:39.554Z,62.64
2019-04-30T14:17:11.527Z,65.35
2019-04-30T14:19:43.404Z,67.34
2019-04-30T14:22:15.427Z,68.46
2019-04-30T14:24:47.281Z,69.93
2019-04-30T14:27:19.216Z,70.23
2019-04-30T14:29:51.189Z,71.33
2019-04-30T14:32:23.132Z,71.47
2019-04-30T14:34:54.867Z,72.68
2019-04-30T14:37:26.774Z,71.83
2019-04-30T14:39:59.480Z,73.45
2019-04-30T14:42:34.178Z,73.79
2019-04-30T14:45:11.946Z,72.57
2019-04-30T14:47:52.606Z,74.16
2019-04-30T14:50:28.513Z,74.82
2019-04-30T14:53:04.360Z,73.83
2019-04-30T14:55:47.268Z,74.03
2019-04-30T14:58:21.067Z,73.09
2019-04-30T15:01:00.781Z,73.36
2019-04-30T15:03:34.444Z,72.77
2019-04-30T15:06:06.341Z,72.21
2019-04-30T15:08:39.367Z,73.54
2019-04-30T15:11:11.813Z,74.41
2019-04-30T15:13:44.019Z,74.73
2019-04-30T15:16:17.083Z,75.02
2019-04-30T15:18:49.308Z,74.86
2019-04-30T15:21:21.325Z,74.29
2019-04-30T15:23:58.604Z,73.65
2019-04-30T15:26:28.837Z,73.42
2019-04-30T15:29:01.021Z,72.91
2019-04-30T15:31:32.932Z,73.87
2019-04-30T15:34:06.747Z,73.63
2019-04-30T15:36:39.245Z,74.91
2019-04-30T15:39:12.760Z,75.05
2019-04-30T15:41:44.643Z,75.29
2019-04-30T15:44:16.786Z,75.72
2019-04-30T15:46:48.770Z,75.95
2019-04-30T15:49:20.890Z,76.54
2019-04-30T15:51:52.898Z,76.83
2019-04-30T15:54:24.963Z,77.36
2019-04-30T15:57:00.246Z,77.54
2019-04-30T15:59:32.956Z,77.36
2019-04-30T16:02:18.859Z,78.62
2019-04-30T16:04:59.856Z,79.39
2019-04-30T16:07:31.776Z,79.35
2019-04-30T16:10:08.880Z,79.65
2019-04-30T16:12:45.045Z,81.06
2019-04-30T16:15:18.556Z,80.75
2019-04-30T16:17:54.820Z,80.97
2019-04-30T16:20:29.904Z,81.71
2019-04-30T16:23:00.431Z,81.58
2019-04-30T16:25:32.577Z,82.21
2019-04-30T16:28:04.629Z,82.59
2019-04-30T16:30:36.618Z,82.42
2019-04-30T16:33:09.498Z,82.50
2019-04-30T16:35:41.594Z,82.12
2019-04-30T16:38:13.485Z,82.22
2019-04-30T16:40:45.364Z,81.77
2019-04-30T16:43:18.653Z,81.14
2019-04-30T16:45:50.841Z,80.39
2019-04-30T16:48:22.686Z,79.99
2019-04-30T16:50:54.873Z,80.21
2019-04-30T16:53:26.755Z,80.43
2019-04-30T16:55:58.736Z,80.91
2019-04-30T16:58:32.391Z,81.27
2019-04-30T17:01:05.413Z,81.26
2019-04-30T17:03:39.369Z,81.43
2019-04-30T17:06:12.941Z,81.30
2019-04-30T17:08:46.487Z,81.25
2019-04-30T17:11:36.162Z,81.24
2019-04-30T17:14:09.805Z,82.84
2019-04-30T17:16:43.262Z,49.79
2019-04-30T17:19:15.199Z,32.93
2019-04-30T17:21:47.488Z,27.82
2019-04-30T17:24:19.581Z,25.28
2019-04-30T17:26:51.940Z,23.71
2019-04-30T17:29:23.827Z,22.72
2019-04-30T17:31:55.709Z,22.05
2019-04-30T17:34:28.886Z,21.44
2019-04-30T17:37:01.487Z,21.04
2019-04-30T17:39:33.659Z,20.82
2019-04-30T17:42:05.491Z,20.70
2019-04-30T17:44:37.418Z,20.56
2019-04-30T17:47:09.542Z,20.50
2019-04-30T17:49:41.590Z,20.62
2019-04-30T17:52:13.672Z,20.56
2019-04-30T17:54:45.752Z,20.40
2019-04-30T17:57:29.776Z,20.10
2019-04-30T17:59:52.363Z,20.05
2019-04-30T18:02:26.164Z,20.29
2019-04-30T18:04:58.177Z,20.42
2019-04-30T18:07:30.325Z,20.39
2019-04-30T18:10:02.294Z,20.36
2019-04-30T18:12:35.657Z,20.21
2019-04-30T18:15:15.121Z,20.18
2019-04-30T18:17:54.597Z,20.40
2019-04-30T18:20:29.319Z,20.34
2019-04-30T18:23:19.093Z,20.06
2019-04-30T18:25:54.281Z,19.98
2019-04-30T18:28:26.433Z,19.96
2019-04-30T18:30:59.118Z,20.09
2019-04-30T18:33:31.286Z,20.13
2019-04-30T18:36:03.465Z,20.01
2019-04-30T18:38:35.464Z,20.26
2019-04-30T18:41:09.468Z,20.39
2019-04-30T18:43:41.383Z,20.10
2019-04-30T18:46:13.652Z,20.01
2019-04-30T18:48:45.821Z,20.02
2019-04-30T18:51:33.310Z,19.94
2019-04-30T18:53:51.646Z,20.02
2019-04-30T18:56:23.519Z,19.94
2019-04-30T18:58:55.582Z,19.92
2019-04-30T19:01:27.491Z,19.88
2019-04-30T19:04:01.148Z,19.91
2019-04-30T19:06:33.415Z,19.98
2019-04-30T19:09:24.591Z,20.16
2019-04-30T19:12:04.205Z,20.25
2019-04-30T19:14:35.940Z,20.09
2019-04-30T19:17:19.478Z,20.00
2019-04-30T19:20:05.082Z,20.06
2019-04-30T19:22:37.228Z,20.03
2019-04-30T19:25:09.298Z,20.18
2019-04-30T19:27:41.514Z,20.62
2019-04-30T19:30:13.916Z,20.67
2019-04-30T19:32:46.100Z,20.61
2019-04-30T19:35:18.770Z,20.64
2019-04-30T19:37:51.145Z,20.64
2019-04-30T19:40:23.050Z,20.71
2019-04-30T19:42:55.570Z,20.51
2019-04-30T19:45:27.955Z,20.40
2019-04-30T19:48:00.422Z,20.23
2019-04-30T19:50:32.252Z,20.23
2019-04-30T19:53:05.381Z,20.29
2019-04-30T19:55:39.407Z,20.41
2019-04-30T19:58:25.070Z,20.47
2019-04-30T20:00:46.168Z,20.35
2019-04-30T20:03:19.767Z,20.26
2019-04-30T20:05:51.805Z,20.24
2019-04-30T20:08:23.897Z,20.21
2019-04-30T20:10:55.872Z,20.17
2019-04-30T20:13:33.869Z,20.16
2019-04-30T20:16:01.412Z,20.20
2019-04-30T20:18:33.482Z,20.32
2019-04-30T20:21:09.086Z,20.18
2019-04-30T20:23:40.806Z,20.27
2019-04-30T20:26:12.706Z,20.25
2019-04-30T20:28:44.659Z,20.25
2019-04-30T20:31:18.919Z,20.11
2019-04-30T20:33:50.569Z,20.01
2019-04-30T20:36:24.129Z,19.96
2019-04-30T20:39:00.615Z,19.97
2019-04-30T20:41:33.627Z,19.92
2019-04-30T20:44:05.806Z,19.91
2019-04-30T20:46:39.324Z,19.75
2019-04-30T20:49:11.326Z,19.64
2019-04-30T20:51:53.524Z,22.21
2019-04-30T20:54:18.908Z,29.80
2019-04-30T20:56:51.038Z,37.54
2019-04-30T20:59:23.356Z,44.80
2019-04-30T21:01:55.358Z,50.79
2019-04-30T21:04:27.409Z,55.51
2019-04-30T21:06:59.543Z,60.14
2019-04-30T21:09:31.760Z,63.68
2019-04-30T21:12:03.643Z,66.62
2019-04-30T21:14:35.548Z,69.11
2019-04-30T21:17:07.378Z,71.04
2019-04-30T21:19:39.402Z,74.00
2019-04-30T21:22:11.510Z,75.69
2019-04-30T21:24:43.764Z,76.85
2019-04-30T21:27:15.887Z,77.66
2019-04-30T21:29:49.322Z,78.44
2019-04-30T21:32:30.018Z,79.15
2019-04-30T21:35:15.443Z,79.71
2019-04-30T21:37:47.487Z,79.66
2019-04-30T21:40:19.626Z,80.55
2019-04-30T21:42:51.586Z,81.36
2019-04-30T21:45:23.897Z,82.38
2019-04-30T21:47:56.673Z,82.84
2019-04-30T21:50:29.670Z,82.85
2019-04-30T21:53:01.549Z,82.69
2019-04-30T21:55:33.575Z,83.08
2019-04-30T21:58:05.407Z,83.53
2019-04-30T22:00:40.688Z,83.57
2019-04-30T22:03:12.680Z,83.79
2019-04-30T22:05:44.836Z,84.14
2019-04-30T22:08:18.802Z,84.73
2019-04-30T22:10:50.603Z,84.35
2019-04-30T22:13:22.765Z,85.21
2019-04-30T22:15:54.823Z,85.28
2019-04-30T22:18:26.550Z,85.15
2019-04-30T22:20:58.688Z,85.20
2019-04-30T22:23:30.440Z,85.30
2019-04-30T22:26:02.255Z,85.42
2019-04-30T22:28:34.013Z,85.54
2019-04-30T22:31:05.956Z,85.69
2019-04-30T22:33:39.210Z,85.54
2019-04-30T22:36:29.016Z,85.43
2019-04-30T22:39:12.018Z,85.40
2019-04-30T22:41:44.334Z,86.10
2019-04-30T22:44:16.384Z,86.04
2019-04-30T22:46:49.249Z,85.91
2019-04-30T22:49:21.112Z,85.67
2019-04-30T22:51:52.950Z,85.98
2019-04-30T22:54:26.959Z,85.79
2019-04-30T22:56:58.931Z,85.67
2019-04-30T22:59:30.819Z,85.33
2019-04-30T23:02:13.345Z,85.21
2019-04-30T23:04:49.773Z,85.53
2019-04-30T23:07:21.794Z,85.53
2019-04-30T23:09:53.754Z,85.50
2019-04-30T23:12:26.542Z,85.27
2019-04-30T23:14:58.372Z,84.96
2019-04-30T23:17:30.329Z,85.06
2019-04-30T23:20:02.175Z,85.13
2019-04-30T23:22:34.121Z,85.22
2019-04-30T23:25:08.086Z,85.34
2019-04-30T23:27:40.049Z,85.44
2019-04-30T23:30:12.684Z,85.42
2019-04-30T23:32:44.579Z,85.97
2019-04-30T23:35:16.471Z,86.01
2019-04-30T23:37:48.359Z,85.86
2019-04-30T23:40:51.926Z,85.83
2019-04-30T23:43:24.539Z,85.81
2019-04-30T23:45:56.493Z,85.65
2019-04-30T23:48:28.435Z,85.63
2019-04-30T23:51:00.403Z,85.97
2019-04-30T23:53:32.900Z,86.13
2019-04-30T23:56:04.839Z,86.25
2019-04-30T23:58:36.637Z,85.99
